Castroville, California
Current Conditions -  °F | °C
As of 9:53 AM on Sunday 28 Dec 2014 (Local Time) from KSNS Reporting Station
Clear Clear  
Wind Chill: 43°   Ceiling: Unl
Heat Index: 47°   Visibility: 10mi
Dew Point: 38°   Wind: 8mph
Humidity: 71%   Direction: 100°E
Pressure: 30.34"   Gusts: NA
Location:  36.76°N, 121.75°W
Report Text: KSNS 281753Z AUTO 10007KT 10SM CLR 08/03 A3034 RMK AO2 SLP284 T00830033 10083 20033 53008 $
Loading
Personal Weather Stations






























Interactive Weather Map New forecast layout! Learn more

10-Day Weather Forecast

Advertisements
Track Severe Weather on mobile